Time;durP1;ratioP1;P1;durP2;ratioP2;P2;SDS_P1;SDS_P2;PMS_P1;PMS_P2;Temp;Humidity;BMP_temperature;BMP_pressure;BME280_temperature;BME280_humidity;BME280_pressure;Samples;Min_cycle;Max_cycle;Signal;HPM_P1;HPM_P2
2021/08/06 00:03:25;;;;;;;3.95;2.20;;;;;;;15.55;100.00;97458.07;4019832;86;21098;-84
2021/08/06 00:09:28;;;;;;;3.35;2.55;;;;;;;15.55;100.00;97453.18;4005877;87;21098;-84
2021/08/06 00:15:29;;;;;;;2.35;2.02;;;;;;;15.54;100.00;97452.40;4013144;86;21103;-83
2021/08/06 00:21:30;;;;;;;4.58;2.30;;;;;;;15.50;100.00;97453.11;4028737;86;21057;-84
2021/08/06 00:27:32;;;;;;;3.42;1.92;;;;;;;15.45;100.00;97449.55;4098050;84;21037;-84
2021/08/06 00:33:33;;;;;;;2.27;1.75;;;;;;;15.43;100.00;97458.88;4115543;85;21007;-85
2021/08/06 00:39:36;;;;;;;1.95;1.75;;;;;;;15.39;100.00;97464.34;4085365;83;21046;-83
2021/08/06 00:45:39;;;;;;;4.10;2.02;;;;;;;15.36;100.00;97467.95;4116523;84;21037;-84
2021/08/06 00:51:43;;;;;;;2.77;1.80;;;;;;;15.33;100.00;97466.08;4132337;84;21595;-83
2021/08/06 00:57:45;;;;;;;6.08;1.80;;;;;;;15.31;100.00;97465.75;4103661;83;21093;-84
2021/08/06 01:04:24;;;;;;;4.17;1.90;;;;;;;15.28;100.00;97472.14;4097319;85;21078;-83
2021/08/06 01:10:30;;;;;;;4.60;2.17;;;;;;;15.23;100.00;97479.59;4103734;85;21042;-83
2021/08/06 01:16:36;;;;;;;6.47;1.98;;;;;;;15.22;100.00;97470.53;4129870;84;21085;-83
2021/08/06 01:23:27;;;;;;;4.53;2.20;;;;;;;15.21;100.00;97473.73;4116978;84;21669;-83
2021/08/06 01:29:28;;;;;;;3.00;2.50;;;;;;;15.19;100.00;97479.69;4058046;85;21055;-83
2021/08/06 01:35:32;;;;;;;3.83;2.60;;;;;;;15.18;100.00;97489.18;4050988;85;21702;-83
2021/08/06 01:42:05;;;;;;;3.37;3.00;;;;;;;15.15;100.00;97483.17;4012318;86;21166;-85
2021/08/06 01:48:13;;;;;;;6.03;3.17;;;;;;;15.13;100.00;97487.56;4060682;85;21070;-84
2021/08/06 01:54:18;;;;;;;3.60;3.30;;;;;;;15.11;100.00;97487.25;4078055;84;21071;-84
2021/08/06 02:00:20;;;;;;;4.30;2.67;;;;;;;15.12;100.00;97499.22;3971349;87;21614;-84
2021/08/06 02:06:24;;;;;;;2.65;2.37;;;;;;;15.11;100.00;97490.02;4066795;83;21601;-84
2021/08/06 02:12:29;;;;;;;3.08;2.60;;;;;;;15.12;100.00;97486.03;4065378;85;21047;-83
2021/08/06 02:18:33;;;;;;;7.80;2.50;;;;;;;15.10;100.00;97505.77;4110918;84;21051;-84
2021/08/06 02:24:41;;;;;;;;;;;;;;;15.08;100.00;97499.91;4092493;84;21097;-84
2021/08/06 02:30:51;;;;;;;5.53;2.40;;;;;;;15.08;100.00;97506.80;4029479;86;20165;-84
2021/08/06 02:36:54;;;;;;;4.15;2.02;;;;;;;15.05;100.00;97501.42;3972668;86;21153;-83
2021/08/06 02:42:56;;;;;;;3.95;2.30;;;;;;;15.02;100.00;97501.67;4103898;84;21077;-84
2021/08/06 02:48:57;;;;;;;2.62;2.02;;;;;;;14.99;100.00;97511.42;4042094;85;21047;-84
2021/08/06 02:55:03;;;;;;;2.80;2.10;;;;;;;14.96;100.00;97513.67;4072733;85;21118;-83
2021/08/06 03:01:05;;;;;;;3.40;2.10;;;;;;;14.94;100.00;97512.73;4077786;85;21055;-85
2021/08/06 03:07:07;;;;;;;3.83;2.50;;;;;;;14.93;100.00;97523.61;4058174;84;21017;-84
2021/08/06 03:13:09;;;;;;;6.15;2.52;;;;;;;14.88;100.00;97525.52;4043502;85;21384;-84
2021/08/06 03:19:18;;;;;;;2.92;1.95;;;;;;;14.86;100.00;97532.06;4029971;86;21098;-83
2021/08/06 03:25:21;;;;;;;4.30;2.42;;;;;;;14.83;100.00;97534.31;4119858;83;31711;-85
2021/08/06 03:31:27;;;;;;;5.22;2.70;;;;;;;14.79;100.00;97537.02;4129893;84;21577;-84
2021/08/06 03:37:29;;;;;;;3.95;2.67;;;;;;;14.73;100.00;97539.55;4132643;83;21146;-84
2021/08/06 03:43:30;;;;;;;3.87;2.77;;;;;;;14.68;100.00;97541.45;4142308;84;21040;-85
2021/08/06 03:49:32;;;;;;;4.40;2.77;;;;;;;14.64;100.00;97551.02;4111728;84;21611;-84
2021/08/06 03:55:39;;;;;;;5.40;2.67;;;;;;;14.59;100.00;97555.09;4129081;84;21054;-85
2021/08/06 04:01:48;;;;;;;3.70;2.45;;;;;;;14.55;100.00;97562.66;4118184;83;21131;-85
2021/08/06 04:07:53;;;;;;;4.25;2.60;;;;;;;14.49;100.00;97567.16;4137432;83;21536;-83
2021/08/06 04:13:59;;;;;;;2.50;2.22;;;;;;;14.47;100.00;97568.81;4125944;83;21070;-83
2021/08/06 04:20:03;;;;;;;2.80;2.33;;;;;;;14.49;100.00;97573.25;4118635;83;21036;-84
2021/08/06 04:26:11;;;;;;;2.83;2.58;;;;;;;14.47;100.00;97575.69;4125870;84;21039;-84
2021/08/06 04:32:12;;;;;;;6.17;2.83;;;;;;;14.47;100.00;97585.33;4111507;83;21120;-84
2021/08/06 04:38:21;;;;;;;5.17;2.50;;;;;;;14.44;100.00;97597.21;4140707;83;21051;-83
2021/08/06 04:44:23;;;;;;;3.22;2.67;;;;;;;14.40;100.00;97600.05;4139765;84;21528;-82
2021/08/06 04:50:33;;;;;;;3.72;2.92;;;;;;;14.40;100.00;97600.05;4148728;84;22181;-84
2021/08/06 04:56:48;;;;;;;5.40;3.35;;;;;;;14.40;100.00;97605.55;4143821;83;22231;-83
2021/08/06 05:02:50;;;;;;;8.13;4.17;;;;;;;14.38;100.00;97614.84;4050421;85;21135;-84
2021/08/06 05:08:55;;;;;;;6.00;4.17;;;;;;;14.37;100.00;97622.94;4031980;86;21084;-83
2021/08/06 05:14:57;;;;;;;5.92;4.08;;;;;;;14.39;100.00;97626.05;4019067;86;21160;-84
2021/08/06 05:20:59;;;;;;;9.33;4.00;;;;;;;14.38;100.00;97634.70;4015357;86;21092;-84
2021/08/06 05:27:00;;;;;;;7.05;4.12;;;;;;;14.37;100.00;97634.55;4014461;86;21062;-84
2021/08/06 05:33:04;;;;;;;7.55;4.72;;;;;;;14.39;100.00;97639.02;4021195;86;21702;-85
2021/08/06 05:39:05;;;;;;;5.37;4.45;;;;;;;14.34;100.00;97640.33;4030306;86;21137;-84
2021/08/06 05:45:09;;;;;;;6.33;5.65;;;;;;;14.35;100.00;97641.08;4132622;83;21094;-84
2021/08/06 05:51:11;;;;;;;7.12;5.28;;;;;;;14.35;100.00;97644.61;4140696;83;21533;-84
2021/08/06 05:57:14;;;;;;;8.58;5.20;;;;;;;14.40;100.00;97655.11;4148434;83;21016;-83
2021/08/06 06:03:17;;;;;;;5.30;4.80;;;;;;;14.43;100.00;97663.09;4151822;83;21074;-83
2021/08/06 06:09:23;;;;;;;5.37;4.72;;;;;;;14.43;100.00;97674.89;4133502;83;21614;-83
2021/08/06 06:15:25;;;;;;;5.05;3.75;;;;;;;14.43;100.00;97680.40;4140950;83;21074;-85
2021/08/06 06:21:27;;;;;;;5.72;3.85;;;;;;;14.45;100.00;97677.22;4121605;84;21024;-83
2021/08/06 06:27:29;;;;;;;5.40;3.67;;;;;;;14.43;100.00;97676.86;4139007;83;21026;-83
2021/08/06 06:33:33;;;;;;;3.60;3.30;;;;;;;14.43;100.00;97678.23;4145024;83;21500;-84
2021/08/06 06:39:34;;;;;;;2.85;2.52;;;;;;;14.43;100.00;97698.89;4137606;83;21456;-83
2021/08/06 06:45:39;;;;;;;4.33;2.85;;;;;;;14.42;100.00;97695.38;4142531;83;21140;-83
2021/08/06 06:51:41;;;;;;;3.83;3.10;;;;;;;14.40;100.00;97704.66;4136253;84;21036;-82
2021/08/06 06:57:53;;;;;;;5.47;2.85;;;;;;;14.41;100.00;97715.84;4133159;83;21066;-83
2021/08/06 07:03:55;;;;;;;2.55;2.17;;;;;;;14.40;100.00;97721.19;4137876;83;21910;-83
2021/08/06 07:09:57;;;;;;;3.90;2.25;;;;;;;14.39;100.00;97723.78;4138377;83;21076;-83
2021/08/06 07:15:59;;;;;;;3.25;2.30;;;;;;;14.40;100.00;97732.20;4150793;83;21083;-83
2021/08/06 07:22:01;;;;;;;2.80;2.60;;;;;;;14.45;100.00;97732.28;4139505;83;21100;-83
2021/08/06 07:28:03;;;;;;;2.92;2.42;;;;;;;14.50;100.00;97743.53;4146506;83;22272;-83
2021/08/06 07:34:04;;;;;;;4.22;2.85;;;;;;;14.56;100.00;97741.84;4143826;83;21027;-83
2021/08/06 07:40:07;;;;;;;7.58;3.92;;;;;;;14.58;100.00;97755.18;4139821;84;21031;-82
2021/08/06 07:46:09;;;;;;;6.45;4.12;;;;;;;14.56;100.00;97768.00;4142576;83;21078;-86
2021/08/06 07:52:13;;;;;;;4.55;3.87;;;;;;;14.57;100.00;97772.30;4145426;83;21033;-83
2021/08/06 07:58:15;;;;;;;4.75;4.25;;;;;;;14.61;100.00;97771.59;4151135;83;21440;-83
2021/08/06 08:04:16;;;;;;;4.37;3.98;;;;;;;14.69;100.00;97771.59;4140748;83;21576;-82
2021/08/06 08:10:19;;;;;;;5.35;3.75;;;;;;;14.77;100.00;97773.59;4131470;83;21027;-83
2021/08/06 08:16:24;;;;;;;5.08;4.37;;;;;;;14.82;100.00;97782.10;4134293;84;21018;-84
2021/08/06 08:22:26;;;;;;;5.58;4.70;;;;;;;14.85;100.00;97791.47;4131231;83;21066;-85
2021/08/06 08:28:27;;;;;;;7.22;5.30;;;;;;;14.85;100.00;97797.77;4118271;83;21098;-83
2021/08/06 08:41:05;;;;;;;8.45;6.97;;;;;;;14.83;100.00;97793.28;4139738;83;21658;-83
2021/08/06 08:47:08;;;;;;;8.13;7.28;;;;;;;14.85;100.00;97801.11;4012491;86;21137;-83
2021/08/06 08:53:11;;;;;;;9.10;7.72;;;;;;;14.86;100.00;97800.69;4041332;85;21132;-83
2021/08/06 08:59:13;;;;;;;7.25;6.30;;;;;;;14.96;100.00;97807.14;4028675;86;21056;-84
2021/08/06 09:05:24;;;;;;;8.25;7.08;;;;;;;15.11;100.00;97810.48;4019248;87;21121;-83
2021/08/06 09:11:32;;;;;;;7.97;6.37;;;;;;;15.26;100.00;97819.16;4014436;86;21031;-83
2021/08/06 09:17:54;;;;;;;7.95;6.30;;;;;;;15.31;100.00;97822.78;4025246;86;21034;-84
2021/08/06 09:23:59;;;;;;;7.85;5.30;;;;;;;15.49;100.00;97825.27;4039801;86;21034;-83
2021/08/06 09:30:06;;;;;;;6.67;5.05;;;;;;;15.82;100.00;97823.16;4022096;86;21537;-83
2021/08/06 09:36:17;;;;;;;5.97;4.20;;;;;;;16.08;100.00;97825.39;3996528;87;21064;-83
2021/08/06 09:42:26;;;;;;;5.87;4.67;;;;;;;16.08;100.00;97826.17;4133431;83;21067;-83
2021/08/06 09:48:28;;;;;;;5.58;4.50;;;;;;;16.05;100.00;97829.81;4130073;83;21574;-82
2021/08/06 09:54:30;;;;;;;5.50;4.33;;;;;;;15.98;100.00;97839.66;4129836;83;21418;-82
2021/08/06 10:00:32;;;;;;;6.75;4.30;;;;;;;15.82;100.00;97841.10;4115767;83;21586;-81
2021/08/06 10:06:33;;;;;;;6.85;4.65;;;;;;;15.72;100.00;97844.95;4128937;83;21589;-82
2021/08/06 10:12:35;;;;;;;6.45;5.12;;;;;;;15.69;100.00;97839.67;4154198;83;21027;-83
2021/08/06 10:18:38;;;;;;;7.65;5.60;;;;;;;15.85;100.00;97856.78;4148029;83;21071;-82
2021/08/06 10:24:43;;;;;;;4.62;4.22;;;;;;;16.78;100.00;97847.52;4122145;83;22620;-83
2021/08/06 10:30:45;;;;;;;9.73;5.62;;;;;;;17.03;100.00;97851.64;4143354;83;21157;-82
2021/08/06 10:36:51;;;;;;;5.42;4.00;;;;;;;16.86;100.00;97857.73;4143257;84;21488;-81
2021/08/06 10:42:52;;;;;;;6.17;3.27;;;;;;;16.70;100.00;97859.22;4127700;83;21022;-82
2021/08/06 10:48:56;;;;;;;6.55;3.30;;;;;;;16.45;100.00;97871.64;4131932;83;21042;-84
2021/08/06 10:55:03;;;;;;;4.83;3.52;;;;;;;16.31;100.00;97874.80;4137875;84;21540;-82
2021/08/06 11:01:24;;;;;;;;;;;;;;;16.28;100.00;97880.59;4122914;83;21027;-81
2021/08/06 11:07:34;;;;;;;10.85;4.08;;;;;;;16.10;100.00;97891.98;4134194;84;20143;-85
2021/08/06 11:13:52;;;;;;;1.02;0.90;;;;;;;15.88;100.00;97922.14;4133963;83;21097;-84
2021/08/06 11:20:11;;;;;;;4.37;1.52;;;;;;;15.46;100.00;97921.88;4136142;83;21047;-84
2021/08/06 11:26:12;;;;;;;4.37;1.65;;;;;;;15.31;100.00;97926.17;4141366;83;21856;-84
2021/08/06 11:32:16;;;;;;;4.45;1.37;;;;;;;15.38;100.00;97917.14;4127611;83;21450;-84
2021/08/06 11:38:22;;;;;;;3.33;1.52;;;;;;;15.92;100.00;97904.89;4134298;83;21041;-83
2021/08/06 11:44:24;;;;;;;3.47;1.63;;;;;;;16.81;100.00;97913.55;4136618;83;21055;-82
2021/08/06 11:50:54;;;;;;;1.67;1.27;;;;;;;17.61;100.00;97914.92;4133288;83;22213;-83
2021/08/06 11:57:00;;;;;;;3.70;1.60;;;;;;;17.55;100.00;97918.89;4137986;84;20996;-82
2021/08/06 12:03:15;;;;;;;3.02;1.77;;;;;;;17.27;100.00;97923.16;4147278;83;21091;-82
2021/08/06 12:09:17;;;;;;;2.80;1.72;;;;;;;16.96;100.00;97927.12;4132553;83;21170;-82
2021/08/06 12:15:25;;;;;;;2.95;1.62;;;;;;;16.71;100.00;97925.09;4128556;83;21086;-83
2021/08/06 12:21:31;;;;;;;3.33;2.42;;;;;;;16.43;100.00;97941.70;4093354;85;21981;-85
2021/08/06 12:27:39;;;;;;;4.58;1.90;;;;;;;16.16;100.00;97953.11;4135607;83;21527;-85
2021/08/06 12:33:45;;;;;;;3.67;2.30;;;;;;;15.82;100.00;97942.44;4148913;83;21068;-87
2021/08/06 12:39:55;;;;;;;5.37;2.60;;;;;;;15.50;100.00;97939.12;4056648;85;21049;-84
2021/08/06 12:46:16;;;;;;;4.87;3.75;;;;;;;15.64;100.00;97962.97;4016031;86;21104;-86
2021/08/06 12:52:22;;;;;;;4.12;3.55;;;;;;;15.81;100.00;97971.23;4046464;85;21086;-83
2021/08/06 12:58:26;;;;;;;8.45;5.00;;;;;;;15.80;100.00;97971.06;4143800;83;21023;-83
2021/08/06 13:04:33;;;;;;;8.03;5.35;;;;;;;15.65;100.00;97961.77;4140060;83;21107;-84
2021/08/06 13:10:35;;;;;;;9.58;4.70;;;;;;;15.84;100.00;97966.22;4131632;83;21089;-84
2021/08/06 13:16:36;;;;;;;5.75;3.40;;;;;;;16.08;100.00;97973.86;4117473;83;21046;-83
2021/08/06 13:22:37;;;;;;;4.53;3.27;;;;;;;16.23;100.00;97975.02;4124311;83;21008;-83
2021/08/06 13:28:39;;;;;;;3.42;2.67;;;;;;;16.32;100.00;97968.25;4144728;83;21674;-83
2021/08/06 13:34:40;;;;;;;5.30;2.10;;;;;;;16.43;100.00;97981.16;4141302;83;21591;-82
2021/08/06 13:40:42;;;;;;;2.45;1.60;;;;;;;16.63;100.00;97986.55;4151143;83;21023;-83
2021/08/06 13:46:43;;;;;;;4.95;1.82;;;;;;;16.76;100.00;97977.06;4150843;83;21098;-83
2021/08/06 13:52:48;;;;;;;3.27;1.47;;;;;;;16.75;100.00;97991.33;4136603;83;21647;-82
2021/08/06 13:58:59;;;;;;;3.27;1.60;;;;;;;16.81;100.00;97995.09;4112115;83;21066;-82
2021/08/06 14:05:03;;;;;;;2.53;1.60;;;;;;;16.87;100.00;97998.25;4132829;83;21043;-84
2021/08/06 14:11:07;;;;;;;2.70;1.80;;;;;;;16.93;100.00;98008.92;4129419;83;21051;-82
2021/08/06 14:17:10;;;;;;;3.30;1.37;;;;;;;17.07;100.00;98005.73;4137812;83;21055;-82
2021/08/06 14:23:12;;;;;;;3.20;1.87;;;;;;;17.24;99.65;98021.01;4103767;83;21055;-82
2021/08/06 14:29:13;;;;;;;4.92;1.77;;;;;;;17.17;99.14;98026.77;4142727;83;21056;-83
2021/08/06 14:35:15;;;;;;;2.47;1.75;;;;;;;17.07;98.26;98047.80;4151387;83;21056;-83
2021/08/06 14:41:16;;;;;;;3.20;1.60;;;;;;;17.01;97.74;98053.72;4135482;83;21020;-84
2021/08/06 14:47:18;;;;;;;3.47;1.72;;;;;;;17.08;97.64;98046.02;4112429;83;21139;-82
2021/08/06 14:53:19;;;;;;;3.67;1.85;;;;;;;17.11;97.13;98048.49;4143575;83;21056;-82
2021/08/06 14:59:20;;;;;;;3.60;1.60;;;;;;;17.04;96.42;98057.77;4131742;83;21092;-83
2021/08/06 15:05:22;;;;;;;4.50;1.90;;;;;;;17.04;96.38;98066.66;4119036;83;21048;-82
2021/08/06 15:11:23;;;;;;;2.87;1.77;;;;;;;17.18;96.27;98078.69;4128541;84;21055;-82
2021/08/06 15:17:25;;;;;;;4.60;2.00;;;;;;;17.21;95.19;98086.13;4150813;84;21585;-85
2021/08/06 15:23:26;;;;;;;3.52;1.60;;;;;;;17.28;95.12;98096.97;4133073;83;21050;-83
2021/08/06 15:29:28;;;;;;;4.58;1.65;;;;;;;17.29;94.09;98097.75;4135721;83;21050;-82
2021/08/06 15:35:29;;;;;;;2.55;1.40;;;;;;;17.27;93.32;98095.42;4127934;83;22372;-83
2021/08/06 15:41:31;;;;;;;8.83;2.47;;;;;;;17.22;93.11;98095.97;4118577;84;21029;-83
2021/08/06 15:47:32;;;;;;;4.20;1.60;;;;;;;17.15;92.27;98099.70;4132908;83;21702;-83
2021/08/06 15:53:34;;;;;;;2.72;1.65;;;;;;;17.07;91.83;98104.48;4142335;83;21020;-83
2021/08/06 15:59:35;;;;;;;3.50;2.02;;;;;;;16.97;92.05;98100.06;4145825;83;21051;-82
2021/08/06 16:05:36;;;;;;;3.50;1.75;;;;;;;16.87;91.39;98096.98;4136774;83;21055;-83
2021/08/06 16:11:38;;;;;;;3.62;1.55;;;;;;;16.80;91.07;98100.70;4145955;83;21000;-83
2021/08/06 16:17:40;;;;;;;3.45;2.15;;;;;;;16.82;91.16;98105.80;4123060;83;21107;-83
2021/08/06 16:23:41;;;;;;;4.37;2.10;;;;;;;16.82;91.00;98109.34;4137009;84;21040;-84
2021/08/06 16:29:42;;;;;;;4.37;1.98;;;;;;;16.87;90.78;98109.41;4141957;83;21071;-82
2021/08/06 16:35:44;;;;;;;7.00;2.42;;;;;;;16.86;90.83;98098.98;4145168;83;21103;-82
2021/08/06 16:41:47;;;;;;;3.83;2.45;;;;;;;16.84;90.21;98107.53;4140768;83;21648;-83
2021/08/06 16:47:49;;;;;;;7.28;2.77;;;;;;;16.82;90.20;98105.80;4126918;83;21032;-83
2021/08/06 16:53:51;;;;;;;4.80;2.10;;;;;;;16.80;89.97;98098.57;4130469;84;21961;-82
2021/08/06 16:59:52;;;;;;;5.62;2.02;;;;;;;16.79;90.03;98088.71;4144870;83;21043;-84
2021/08/06 17:05:53;;;;;;;4.92;2.00;;;;;;;16.65;89.69;98102.32;4110379;83;21092;-82
2021/08/06 17:11:55;;;;;;;3.08;1.92;;;;;;;16.54;89.62;98105.98;4125529;83;21051;-83
2021/08/06 17:17:57;;;;;;;3.05;1.72;;;;;;;16.53;89.55;98101.67;4143451;83;21054;-83
2021/08/06 17:23:58;;;;;;;3.85;1.85;;;;;;;16.45;88.97;98097.55;4126096;83;21032;-83
2021/08/06 17:29:59;;;;;;;3.92;1.70;;;;;;;16.43;88.48;98098.55;4144193;84;21120;-83
2021/08/06 17:36:01;;;;;;;2.92;1.67;;;;;;;16.36;88.15;98105.66;4143261;83;21035;-82
2021/08/06 17:42:02;;;;;;;7.35;1.85;;;;;;;16.31;87.83;98106.17;4131594;83;21020;-84
2021/08/06 17:48:04;;;;;;;4.37;2.05;;;;;;;16.08;87.65;98107.75;4127885;83;21128;-82
2021/08/06 17:54:06;;;;;;;3.92;2.12;;;;;;;15.99;87.66;98113.08;4163376;83;21595;-82
2021/08/06 18:00:08;;;;;;;5.92;2.75;;;;;;;15.81;87.54;98119.64;4131910;83;21023;-82
2021/08/06 18:06:12;;;;;;;5.33;2.70;;;;;;;15.75;87.74;98117.83;4134218;83;21665;-83
2021/08/06 18:12:15;;;;;;;5.67;2.92;;;;;;;15.55;87.97;98124.17;4137030;84;21057;-83
2021/08/06 18:18:16;;;;;;;4.97;2.95;;;;;;;15.50;88.29;98127.43;4146937;83;21546;-83
2021/08/06 18:24:18;;;;;;;7.45;3.08;;;;;;;15.39;88.78;98131.02;4138074;83;21035;-82
2021/08/06 18:30:21;;;;;;;6.03;3.20;;;;;;;15.34;89.18;98141.77;4149217;83;21833;-82
2021/08/06 18:36:24;;;;;;;5.83;2.80;;;;;;;15.23;89.38;98148.10;4136228;83;20996;-82
2021/08/06 18:42:26;;;;;;;6.37;3.02;;;;;;;15.12;89.68;98140.65;4125224;83;21014;-82
2021/08/06 18:48:27;;;;;;;6.28;2.90;;;;;;;15.00;89.93;98143.44;4135375;84;21785;-82
2021/08/06 18:54:29;;;;;;;6.33;3.00;;;;;;;14.90;90.11;98151.92;4125503;83;21543;-82
2021/08/06 19:00:30;;;;;;;5.20;3.60;;;;;;;14.85;90.22;98159.30;4132613;83;21028;-82
2021/08/06 19:06:31;;;;;;;5.97;3.15;;;;;;;14.63;89.80;98153.41;4154766;83;21761;-82
2021/08/06 19:12:34;;;;;;;4.92;2.83;;;;;;;14.56;90.84;98158.28;4132959;83;21007;-83
2021/08/06 19:18:36;;;;;;;8.50;3.17;;;;;;;14.50;91.04;98170.36;4136563;83;21052;-82
2021/08/06 19:24:39;;;;;;;8.30;2.75;;;;;;;14.42;91.18;98159.91;4152670;83;21009;-83
2021/08/06 19:30:45;;;;;;;5.17;3.30;;;;;;;14.31;91.73;98164.22;4147464;83;21063;-82
2021/08/06 19:36:48;;;;;;;8.10;3.52;;;;;;;14.28;91.67;98159.56;4082586;84;21523;-82
2021/08/06 19:42:49;;;;;;;5.65;3.12;;;;;;;14.22;91.71;98164.55;4144392;83;21497;-82
2021/08/06 19:48:51;;;;;;;6.03;3.42;;;;;;;14.07;91.79;98166.74;4138273;83;21054;-82
2021/08/06 19:54:52;;;;;;;6.85;3.40;;;;;;;13.94;92.04;98170.67;4149197;83;21018;-83
2021/08/06 20:00:54;;;;;;;6.92;3.67;;;;;;;13.88;92.17;98177.06;4130899;83;21619;-82
2021/08/06 20:06:56;;;;;;;6.37;3.40;;;;;;;13.78;92.49;98181.52;4143696;83;21158;-84
2021/08/06 20:12:58;;;;;;;10.28;3.80;;;;;;;13.70;92.83;98169.06;4129814;83;21024;-82
2021/08/06 20:18:59;;;;;;;8.03;4.75;;;;;;;13.61;92.88;98177.05;4149269;83;21753;-82
2021/08/06 20:25:00;;;;;;;12.43;4.95;;;;;;;13.43;92.79;98184.78;4148986;83;21620;-82
2021/08/06 20:31:02;;;;;;;8.60;5.17;;;;;;;13.25;93.31;98188.33;4142856;83;20972;-82
2021/08/06 20:37:03;;;;;;;10.72;4.70;;;;;;;13.31;94.52;98199.05;4144080;83;21579;-82
2021/08/06 20:43:05;;;;;;;6.90;4.55;;;;;;;13.23;93.45;98196.81;4150810;83;21024;-82
2021/08/06 20:49:06;;;;;;;6.67;4.35;;;;;;;13.08;94.00;98187.16;4146662;83;21583;-82
2021/08/06 20:55:09;;;;;;;6.97;4.47;;;;;;;13.10;94.08;98186.95;4153112;83;21043;-81
2021/08/06 21:01:11;;;;;;;10.23;4.42;;;;;;;13.17;95.17;98190.22;4143793;84;21489;-83
2021/08/06 21:07:12;;;;;;;8.03;3.83;;;;;;;13.17;94.88;98173.73;4135890;83;21063;-82
2021/08/06 21:13:13;;;;;;;12.13;4.20;;;;;;;13.20;95.17;98180.53;4120167;83;21072;-82
2021/08/06 21:19:15;;;;;;;5.80;3.30;;;;;;;13.25;95.21;98182.84;4140973;83;21102;-82
2021/08/06 21:25:17;;;;;;;8.80;4.00;;;;;;;13.24;95.34;98186.78;4130004;84;22055;-82
2021/08/06 21:31:23;;;;;;;6.65;3.62;;;;;;;13.34;95.56;98197.47;4121680;83;22280;-82
2021/08/06 21:37:22;;;;;;;10.50;4.58;;;;;;;13.36;95.71;98195.85;4137055;83;21054;-82
2021/08/06 21:43:23;;;;;;;8.15;3.98;;;;;;;13.42;96.18;98202.45;4131656;84;21087;-82
2021/08/06 21:49:25;;;;;;;7.67;4.92;;;;;;;13.39;95.75;98203.89;4152347;83;21075;-82
2021/08/06 21:55:27;;;;;;;7.35;4.10;;;;;;;13.40;96.38;98198.56;4127364;83;21659;-82
2021/08/06 22:01:28;;;;;;;8.53;3.77;;;;;;;13.29;95.79;98196.54;4148219;83;21038;-82
2021/08/06 22:07:30;;;;;;;8.33;4.40;;;;;;;13.25;96.48;98192.45;4133559;83;21679;-84
2021/08/06 22:13:31;;;;;;;8.78;3.77;;;;;;;13.36;96.88;98191.73;4142777;83;21067;-82
2021/08/06 22:19:33;;;;;;;12.25;4.05;;;;;;;13.45;96.63;98196.13;4150515;83;21053;-82
2021/08/06 22:25:36;;;;;;;11.93;4.60;;;;;;;13.49;96.92;98195.50;4125827;83;21391;-82
2021/08/06 22:31:37;;;;;;;10.95;4.37;;;;;;;13.55;97.20;98184.80;4099393;83;21090;-82
2021/08/06 22:37:38;;;;;;;11.33;3.95;;;;;;;13.59;96.99;98193.18;4145573;83;21021;-83
2021/08/06 22:43:40;;;;;;;10.70;4.70;;;;;;;13.48;96.50;98195.91;4147901;83;21078;-82
2021/08/06 22:49:41;;;;;;;10.10;4.42;;;;;;;13.46;96.88;98192.78;4147064;83;21603;-83
2021/08/06 22:55:43;;;;;;;9.68;4.40;;;;;;;13.38;97.23;98197.60;4138071;83;21087;-82
2021/08/06 23:01:44;;;;;;;8.93;4.75;;;;;;;13.36;97.15;98200.59;4136919;83;21542;-82
2021/08/06 23:07:46;;;;;;;10.95;4.05;;;;;;;13.40;97.33;98201.31;4124288;83;21078;-83
2021/08/06 23:13:47;;;;;;;10.68;4.87;;;;;;;13.46;97.43;98210.66;4142681;83;21011;-82
2021/08/06 23:19:48;;;;;;;6.17;4.67;;;;;;;13.47;97.40;98208.87;4134959;83;21003;-82
2021/08/06 23:25:50;;;;;;;10.23;4.70;;;;;;;13.44;97.52;98210.28;4135446;83;21521;-83
2021/08/06 23:31:51;;;;;;;8.70;4.83;;;;;;;13.41;97.33;98203.65;4147576;83;21023;-82
2021/08/06 23:37:52;;;;;;;9.73;4.72;;;;;;;13.41;97.51;98201.48;4115212;83;21064;-83
2021/08/06 23:43:53;;;;;;;12.37;4.92;;;;;;;13.34;97.27;98202.96;4142595;83;21484;-83
2021/08/06 23:49:55;;;;;;;13.13;4.95;;;;;;;13.28;97.50;98204.00;4138557;83;21089;-83
2021/08/06 23:55:56;;;;;;;12.18;5.67;;;;;;;13.28;97.59;98206.75;4146955;83;21591;-83
